Time;durP1;ratioP1;P1;durP2;ratioP2;P2;SDS_P1;SDS_P2;PMS_P1;PMS_P2;Temp;Humidity;BMP_temperature;BMP_pressure;BME280_temperature;BME280_humidity;BME280_pressure;Samples;Min_cycle;Max_cycle;Signal;HPM_P1;HPM_P2
2021/09/17 00:01:18;;;;;;;3.65;0.15;;;;;;;14.25;55.83;101574.16;4970855;28;21109;-71
2021/09/17 00:03:43;;;;;;;0.68;0.10;;;;;;;14.24;55.54;101582.13;4963254;28;20038;-72
2021/09/17 00:06:09;;;;;;;1.90;0.20;;;;;;;14.19;55.71;101577.06;4960134;28;20388;-71
2021/09/17 00:08:35;;;;;;;2.65;0.10;;;;;;;14.05;56.04;101579.44;4959986;28;20577;-72
2021/09/17 00:11:00;;;;;;;3.05;0.20;;;;;;;14.09;55.68;101583.63;4966001;28;20023;-71
2021/09/17 00:13:26;;;;;;;2.80;0.32;;;;;;;14.09;56.17;101583.63;4962870;28;20043;-71
2021/09/17 00:15:52;;;;;;;3.88;0.15;;;;;;;14.09;55.72;101581.00;4987700;28;20026;-72
2021/09/17 00:18:17;;;;;;;2.65;0.10;;;;;;;14.07;55.37;101580.22;4973205;28;21817;-71
2021/09/17 00:20:43;;;;;;;2.58;0.10;;;;;;;14.01;55.35;101577.84;4962804;28;20062;-71
2021/09/17 00:23:08;;;;;;;1.13;0.10;;;;;;;13.92;55.24;101573.88;4966225;28;20425;-71
2021/09/17 00:25:35;;;;;;;1.27;0.10;;;;;;;13.79;55.22;101572.69;4963563;28;20069;-72
2021/09/17 00:28:01;;;;;;;1.23;0.10;;;;;;;13.81;55.20;101574.31;4961702;28;20031;-72
2021/09/17 00:30:28;;;;;;;2.25;0.20;;;;;;;13.73;55.04;101566.75;4972327;28;20085;-72
2021/09/17 00:32:58;;;;;;;1.48;0.03;;;;;;;13.69;55.39;101565.16;4958771;28;20099;-70
2021/09/17 00:35:25;;;;;;;0.68;0.10;;;;;;;13.62;54.91;101578.63;4977215;28;20038;-71
2021/09/17 00:37:51;;;;;;;2.83;0.28;;;;;;;13.64;54.83;101567.16;4976078;28;20023;-72
2021/09/17 00:40:18;;;;;;;2.83;0.15;;;;;;;13.64;54.89;101569.78;4965762;28;20043;-71
2021/09/17 00:42:43;;;;;;;1.35;0.45;;;;;;;13.62;54.78;101579.50;4968642;28;20038;-71
2021/09/17 00:45:11;;;;;;;2.78;0.15;;;;;;;13.59;54.99;101578.78;4966763;28;20078;-71
2021/09/17 00:47:37;;;;;;;1.08;0.10;;;;;;;13.57;54.74;101575.34;4967348;28;20159;-71
2021/09/17 00:50:05;;;;;;;4.95;0.43;;;;;;;13.60;54.81;101575.22;4967304;28;20042;-72
2021/09/17 00:52:30;;;;;;;7.18;0.20;;;;;;;13.56;54.68;101579.69;4971840;28;20113;-72
2021/09/17 00:54:56;;;;;;;1.52;0.10;;;;;;;13.47;54.72;101580.09;4962380;28;20121;-71
2021/09/17 00:57:22;;;;;;;1.40;0.00;;;;;;;13.39;55.08;101583.03;4966069;28;20036;-71
2021/09/17 00:59:47;;;;;;;3.50;0.25;;;;;;;13.61;54.52;101582.19;4965278;28;20780;-71
2021/09/17 01:02:13;;;;;;;3.17;0.10;;;;;;;13.58;54.27;101582.31;4961115;28;20097;-72
2021/09/17 01:04:38;;;;;;;1.92;0.10;;;;;;;13.62;54.04;101578.63;4968127;28;20039;-71
2021/09/17 01:07:04;;;;;;;2.13;0.00;;;;;;;13.55;53.98;101577.16;4970636;28;20041;-71
2021/09/17 01:09:30;;;;;;;2.25;0.08;;;;;;;13.55;53.96;101578.00;4974031;28;20471;-72
2021/09/17 01:12:02;;;;;;;2.10;0.10;;;;;;;13.58;53.82;101577.06;4960921;28;20165;-72
2021/09/17 01:14:30;;;;;;;1.63;0.00;;;;;;;13.56;53.75;101581.47;4962334;28;20039;-71
2021/09/17 01:16:56;;;;;;;4.25;0.15;;;;;;;13.57;53.85;101578.00;4945077;28;20101;-71
2021/09/17 01:19:21;;;;;;;2.95;0.10;;;;;;;13.55;53.56;101580.63;4979805;28;20031;-73
2021/09/17 01:21:55;;;;;;;3.10;0.10;;;;;;;13.52;53.51;101575.53;4961573;28;20034;-71
2021/09/17 01:24:21;;;;;;;1.65;0.10;;;;;;;13.42;53.67;101577.66;4970658;28;20109;-71
2021/09/17 01:26:46;;;;;;;3.40;0.20;;;;;;;13.36;53.76;101567.41;4972109;28;20146;-72
2021/09/17 01:29:11;;;;;;;1.10;0.00;;;;;;;13.29;53.84;101576.44;4957760;28;20113;-71
2021/09/17 01:31:37;;;;;;;2.42;0.05;;;;;;;13.29;53.71;101565.94;4963004;28;20445;-72
2021/09/17 01:34:07;;;;;;;0.73;0.05;;;;;;;13.28;53.64;101561.63;4964700;28;20098;-72
2021/09/17 01:36:33;;;;;;;1.25;0.00;;;;;;;13.20;54.01;101566.31;4968774;28;20030;-72
2021/09/17 01:38:59;;;;;;;0.20;0.00;;;;;;;13.21;54.00;101568.03;4962161;28;20059;-71
2021/09/17 01:41:24;;;;;;;0.20;0.00;;;;;;;13.17;54.07;101555.94;4963321;28;20070;-71
2021/09/17 01:43:50;;;;;;;3.78;0.10;;;;;;;13.19;53.88;101562.00;4960646;28;20114;-72
2021/09/17 01:46:15;;;;;;;0.28;0.00;;;;;;;13.15;54.07;101563.88;4980297;28;20126;-71
2021/09/17 01:48:41;;;;;;;0.80;0.00;;;;;;;13.11;53.97;101552.63;4967033;28;20027;-71
2021/09/17 01:51:06;;;;;;;1.77;0.08;;;;;;;13.04;54.23;101556.41;4977296;28;20023;-71
2021/09/17 01:53:34;;;;;;;1.02;0.00;;;;;;;13.00;54.18;101552.19;4962260;28;20097;-71
2021/09/17 01:56:00;;;;;;;1.30;0.30;;;;;;;12.96;54.20;101548.03;4976671;28;20042;-72
2021/09/17 01:58:26;;;;;;;0.45;0.10;;;;;;;12.92;54.24;101548.19;4960934;28;20040;-71
2021/09/17 02:00:51;;;;;;;0.25;0.10;;;;;;;12.83;54.10;101552.88;4973675;28;20028;-72
2021/09/17 02:03:17;;;;;;;0.20;0.20;;;;;;;12.77;54.20;101549.63;4964133;28;20031;-71
2021/09/17 02:05:42;;;;;;;3.25;0.10;;;;;;;12.74;54.24;101549.78;4943375;28;20126;-72
2021/09/17 02:08:08;;;;;;;3.50;0.10;;;;;;;12.69;54.49;101548.16;4964901;28;20043;-71
2021/09/17 02:10:33;;;;;;;2.90;0.10;;;;;;;12.63;54.25;101548.38;4965868;28;20093;-71
2021/09/17 02:12:59;;;;;;;0.13;0.00;;;;;;;12.63;54.34;101545.75;4967976;28;20092;-72
2021/09/17 02:15:24;;;;;;;1.60;0.00;;;;;;;12.64;54.60;101546.59;4965174;28;20031;-71
2021/09/17 02:17:50;;;;;;;4.97;0.20;;;;;;;12.60;55.00;101547.63;4961720;28;20059;-71
2021/09/17 02:20:15;;;;;;;1.65;0.00;;;;;;;12.59;54.60;101541.53;4978449;28;20035;-71
2021/09/17 02:22:41;;;;;;;2.13;0.20;;;;;;;12.63;54.42;101544.91;4960236;28;20050;-72
2021/09/17 02:25:07;;;;;;;1.95;0.00;;;;;;;12.63;54.48;101543.13;4969489;28;20035;-71
2021/09/17 02:27:32;;;;;;;0.30;0.00;;;;;;;12.60;54.37;101545.00;4964225;28;20027;-71
2021/09/17 02:29:58;;;;;;;0.10;0.00;;;;;;;12.55;54.67;101536.47;4981563;28;20040;-71
2021/09/17 02:32:23;;;;;;;0.75;0.03;;;;;;;12.53;54.12;101538.28;4980821;28;20031;-72
2021/09/17 02:34:49;;;;;;;2.20;0.10;;;;;;;12.49;54.53;101538.41;4970963;28;20045;-72
2021/09/17 02:37:14;;;;;;;4.32;0.10;;;;;;;12.45;54.44;101530.72;4980128;28;20035;-71
2021/09/17 02:39:39;;;;;;;1.75;0.10;;;;;;;12.34;54.41;101533.72;4950515;28;20043;-71
2021/09/17 02:42:05;;;;;;;0.90;0.00;;;;;;;12.27;54.50;101534.88;4965782;28;20045;-72
2021/09/17 02:44:32;;;;;;;0.93;0.00;;;;;;;12.25;54.71;101534.91;4956399;28;20036;-71
2021/09/17 02:46:58;;;;;;;0.65;0.08;;;;;;;12.23;54.39;101526.25;4965384;28;20047;-72
2021/09/17 02:49:23;;;;;;;1.95;0.10;;;;;;;12.21;54.73;101530.69;4964342;28;20054;-72
2021/09/17 02:51:49;;;;;;;0.45;0.03;;;;;;;12.16;54.58;101534.41;4967747;28;20027;-71
2021/09/17 02:54:14;;;;;;;1.67;0.00;;;;;;;12.12;54.48;101522.31;4965206;28;20136;-71
2021/09/17 02:56:40;;;;;;;0.40;0.03;;;;;;;12.14;54.53;101521.34;4974914;28;20062;-72
2021/09/17 02:59:06;;;;;;;1.10;0.20;;;;;;;12.07;54.76;101525.97;4968972;28;20027;-72
2021/09/17 03:01:31;;;;;;;0.03;0.00;;;;;;;12.01;54.64;101520.94;4976672;28;20038;-71
2021/09/17 03:03:57;;;;;;;0.82;0.00;;;;;;;11.98;54.73;101525.44;4971347;28;20058;-72
2021/09/17 03:06:22;;;;;;;0.17;0.00;;;;;;;11.95;54.97;101520.28;4971183;28;20030;-72
2021/09/17 03:08:49;;;;;;;6.22;0.10;;;;;;;11.92;55.02;101523.88;4963982;28;20077;-71
2021/09/17 03:11:15;;;;;;;0.73;0.00;;;;;;;11.92;54.88;101512.56;4965344;28;20053;-72
2021/09/17 03:13:40;;;;;;;1.65;0.00;;;;;;;11.93;55.12;101514.25;4976037;28;20034;-71
2021/09/17 03:16:07;;;;;;;1.67;0.00;;;;;;;11.93;55.16;101509.00;4970931;28;20111;-71
2021/09/17 03:18:33;;;;;;;4.35;0.10;;;;;;;11.94;55.18;101514.22;4963434;28;20031;-71
2021/09/17 03:20:59;;;;;;;1.15;0.00;;;;;;;11.93;55.23;101511.63;4967717;28;20027;-73
2021/09/17 03:23:25;;;;;;;2.83;0.10;;;;;;;11.95;54.92;101515.91;4967652;28;20031;-72
2021/09/17 03:25:50;;;;;;;0.80;0.00;;;;;;;11.95;54.96;101509.81;4963577;28;20031;-71
2021/09/17 03:28:16;;;;;;;8.88;0.20;;;;;;;11.94;55.15;101508.97;4970882;28;20472;-71
2021/09/17 03:30:42;;;;;;;2.92;0.20;;;;;;;11.91;55.03;101516.06;4963939;28;20473;-72
2021/09/17 03:33:11;;;;;;;3.28;0.20;;;;;;;11.90;54.72;101517.84;4969814;28;20146;-71
2021/09/17 03:35:37;;;;;;;1.27;0.00;;;;;;;11.95;54.89;101525.53;4974591;28;20038;-71
2021/09/17 03:38:04;;;;;;;2.22;0.52;;;;;;;11.91;55.10;101518.69;4977185;28;20057;-71
2021/09/17 03:40:32;;;;;;;0.70;0.10;;;;;;;11.80;54.89;101517.31;4979321;28;20038;-71
2021/09/17 03:42:58;;;;;;;5.03;0.38;;;;;;;11.79;55.00;101519.97;4967531;28;20039;-72
2021/09/17 03:45:23;;;;;;;0.95;0.10;;;;;;;11.75;55.05;101524.44;4974235;28;20096;-72
2021/09/17 03:47:49;;;;;;;0.52;0.10;;;;;;;11.79;55.08;101528.69;4968282;28;20058;-71
2021/09/17 03:50:14;;;;;;;0.80;0.03;;;;;;;11.80;55.20;101526.94;4949297;28;20104;-71
2021/09/17 03:52:40;;;;;;;2.50;0.00;;;;;;;11.83;55.15;101517.19;4964672;28;20069;-71
2021/09/17 03:55:06;;;;;;;0.35;0.13;;;;;;;11.85;55.58;101517.16;4985616;23;20033;-68
2021/09/17 03:57:31;;;;;;;1.50;0.00;;;;;;;11.94;55.32;101518.59;4998722;28;20050;-68
2021/09/17 03:59:57;;;;;;;0.30;0.10;;;;;;;11.99;54.63;101516.66;4998148;28;20079;-68
2021/09/17 04:02:23;;;;;;;0.90;0.00;;;;;;;12.00;54.69;101520.97;5016711;28;20034;-69
2021/09/17 04:04:48;;;;;;;0.75;0.00;;;;;;;11.99;54.73;101516.66;5006289;28;20030;-68
2021/09/17 04:07:14;;;;;;;1.02;0.08;;;;;;;11.98;55.21;101521.06;5002571;28;20084;-68
2021/09/17 04:09:39;;;;;;;1.40;0.20;;;;;;;12.04;55.31;101522.59;4997119;28;20042;-68
2021/09/17 04:12:05;;;;;;;1.20;0.00;;;;;;;12.10;55.40;101517.13;4998461;28;20037;-69
2021/09/17 04:14:30;;;;;;;2.25;0.45;;;;;;;12.10;55.07;101516.28;4989051;28;20030;-69
2021/09/17 04:16:56;;;;;;;1.63;0.20;;;;;;;12.11;54.90;101521.47;4998180;28;20112;-68
2021/09/17 04:19:21;;;;;;;2.92;0.10;;;;;;;12.20;55.06;101523.75;5002885;28;20425;-68
2021/09/17 04:21:47;;;;;;;0.85;0.20;;;;;;;12.17;55.01;101515.13;5004347;28;20480;-68
2021/09/17 04:24:12;;;;;;;0.82;0.00;;;;;;;12.21;54.87;101516.75;5001415;28;20120;-69
2021/09/17 04:26:38;;;;;;;2.42;0.00;;;;;;;12.19;54.59;101522.03;4996427;28;20479;-69
2021/09/17 04:29:04;;;;;;;9.38;0.22;;;;;;;12.18;54.98;101519.44;5000525;28;20037;-68
2021/09/17 04:31:31;;;;;;;0.30;0.00;;;;;;;12.19;54.80;101518.56;5000041;28;20480;-67
2021/09/17 04:33:56;;;;;;;0.20;0.00;;;;;;;12.21;54.83;101517.59;5000904;28;20034;-68
2021/09/17 04:36:22;;;;;;;2.53;0.10;;;;;;;12.18;55.04;101527.31;5001442;28;20033;-67
2021/09/17 04:38:47;;;;;;;0.63;0.10;;;;;;;12.18;54.90;101520.34;4999714;28;20067;-66
2021/09/17 04:41:13;;;;;;;2.33;0.10;;;;;;;12.21;54.85;101522.84;4998738;28;20399;-68
2021/09/17 04:43:38;;;;;;;0.75;0.10;;;;;;;12.22;54.92;101523.69;5000749;28;20409;-68
2021/09/17 04:46:03;;;;;;;0.60;0.20;;;;;;;12.19;55.08;101524.66;5013546;28;20037;-67
2021/09/17 04:48:29;;;;;;;2.45;0.10;;;;;;;12.19;55.21;101524.66;4999119;28;20030;-67
2021/09/17 04:50:54;;;;;;;2.50;0.10;;;;;;;12.17;55.02;101520.38;4995425;28;20495;-68
2021/09/17 04:53:20;;;;;;;1.98;0.00;;;;;;;12.17;54.91;101529.09;4999525;28;20048;-68
2021/09/17 04:55:47;;;;;;;3.30;0.10;;;;;;;12.18;54.67;101530.81;5017094;28;20622;-68
2021/09/17 04:58:13;;;;;;;4.88;0.05;;;;;;;12.16;54.93;101532.63;4996617;28;20053;-68
2021/09/17 05:00:39;;;;;;;4.18;0.20;;;;;;;12.20;55.12;101530.75;5003649;28;20057;-69
2021/09/17 05:03:05;;;;;;;0.43;0.10;;;;;;;12.31;55.30;101532.97;4999683;28;20139;-66
2021/09/17 05:05:30;;;;;;;1.05;0.10;;;;;;;12.36;54.93;101531.06;4997523;28;20034;-70
2021/09/17 05:07:56;;;;;;;0.52;0.10;;;;;;;12.44;54.60;101539.47;5000289;28;20077;-66
2021/09/17 05:10:21;;;;;;;2.78;0.10;;;;;;;12.45;54.66;101536.81;4998706;28;20476;-67
2021/09/17 05:12:47;;;;;;;0.30;0.03;;;;;;;12.43;54.57;101543.03;5003210;28;20400;-69
2021/09/17 05:15:13;;;;;;;0.35;0.00;;;;;;;12.44;54.60;101535.06;4995836;28;20115;-66
2021/09/17 05:17:39;;;;;;;1.65;0.10;;;;;;;12.39;54.54;101537.03;5003249;28;20029;-69
2021/09/17 05:20:05;;;;;;;0.40;0.10;;;;;;;12.40;54.20;101537.88;4984815;28;20033;-68
2021/09/17 05:22:31;;;;;;;1.40;0.10;;;;;;;12.34;54.02;101528.47;5013241;28;20030;-67
2021/09/17 05:24:57;;;;;;;7.32;0.55;;;;;;;12.27;54.16;101532.25;4997593;28;20088;-67
2021/09/17 05:27:25;;;;;;;1.40;0.10;;;;;;;12.35;54.05;101529.34;5003124;28;20483;-68
2021/09/17 05:29:52;;;;;;;3.10;0.22;;;;;;;12.33;53.92;101524.13;5003270;28;20421;-67
2021/09/17 05:32:20;;;;;;;4.20;0.35;;;;;;;12.29;54.08;101526.03;5002242;28;20041;-66
2021/09/17 05:34:46;;;;;;;0.73;0.10;;;;;;;12.29;54.12;101539.13;5016293;28;20646;-68
2021/09/17 05:37:11;;;;;;;0.40;0.10;;;;;;;12.29;54.19;101531.28;4999288;28;20037;-68
2021/09/17 05:39:37;;;;;;;5.40;0.63;;;;;;;12.27;54.38;101542.75;4996171;28;20480;-68
2021/09/17 05:42:03;;;;;;;1.80;0.10;;;;;;;12.26;54.23;101536.63;5004384;28;20697;-68
2021/09/17 05:44:28;;;;;;;1.75;0.20;;;;;;;12.26;54.29;101536.63;5014758;28;20560;-68
2021/09/17 05:46:54;;;;;;;1.30;0.63;;;;;;;12.23;54.27;101536.75;5000449;28;20396;-69
2021/09/17 05:49:19;;;;;;;1.38;0.30;;;;;;;12.16;54.37;101539.66;4999991;28;20041;-68
2021/09/17 05:51:45;;;;;;;2.65;0.22;;;;;;;12.36;54.46;101536.31;4998138;28;20034;-68
2021/09/17 05:54:10;;;;;;;3.28;0.40;;;;;;;12.49;54.37;101540.16;4998330;28;20045;-69
2021/09/17 05:56:39;;;;;;;2.75;0.28;;;;;;;12.60;54.12;101537.13;5002593;28;20041;-69
2021/09/17 05:59:05;;;;;;;9.73;0.60;;;;;;;12.63;54.16;101537.03;4985652;28;20344;-68
2021/09/17 06:01:30;;;;;;;1.45;0.28;;;;;;;12.73;54.09;101535.78;5003911;28;20107;-68
2021/09/17 06:03:55;;;;;;;3.58;0.25;;;;;;;12.85;53.88;101534.47;5000856;28;20049;-68
2021/09/17 06:06:21;;;;;;;3.67;0.50;;;;;;;12.94;53.71;101534.09;5017591;28;20036;-68
2021/09/17 06:08:48;;;;;;;4.97;0.25;;;;;;;13.00;53.53;101544.31;5007284;28;20049;-68
2021/09/17 06:11:14;;;;;;;3.72;0.20;;;;;;;13.06;53.43;101538.84;5001209;28;20033;-67
2021/09/17 06:13:40;;;;;;;1.33;0.22;;;;;;;13.19;53.53;101538.38;4983928;28;20506;-68
2021/09/17 06:16:05;;;;;;;1.88;0.20;;;;;;;13.31;53.66;101543.94;5005655;28;20038;-69
2021/09/17 06:18:31;;;;;;;2.33;0.13;;;;;;;13.47;53.39;101543.31;5002430;28;20040;-67
2021/09/17 06:20:58;;;;;;;5.68;0.20;;;;;;;13.58;53.42;101542.91;5000068;28;20478;-67
2021/09/17 06:23:24;;;;;;;0.70;0.10;;;;;;;13.69;53.32;101554.66;4991240;28;20505;-67
2021/09/17 06:25:49;;;;;;;8.05;0.47;;;;;;;13.71;52.95;101546.72;5004310;28;20061;-67
2021/09/17 06:28:15;;;;;;;1.45;0.50;;;;;;;13.73;52.75;101537.00;4989791;28;20408;-66
2021/09/17 06:30:40;;;;;;;1.30;0.20;;;;;;;13.73;52.89;101539.63;5013039;28;20057;-66
2021/09/17 06:33:07;;;;;;;2.05;0.20;;;;;;;13.85;52.45;101543.50;4999216;28;20348;-66
2021/09/17 06:35:33;;;;;;;2.80;0.13;;;;;;;13.88;52.56;101541.59;5005321;28;20030;-67
2021/09/17 06:37:59;;;;;;;1.95;0.20;;;;;;;13.78;52.73;101540.28;5006535;28;20245;-67
2021/09/17 06:40:26;;;;;;;2.08;0.20;;;;;;;13.89;53.18;101535.41;4999986;28;20037;-68
2021/09/17 06:42:52;;;;;;;1.98;0.20;;;;;;;13.94;52.46;101525.59;5005587;28;20547;-67
2021/09/17 06:45:17;;;;;;;1.52;0.20;;;;;;;13.89;52.41;101519.66;5003183;28;20129;-66
2021/09/17 06:47:53;;;;;;;0.17;0.00;;;;;;;13.99;52.13;101522.75;5014837;28;20030;-67
2021/09/17 06:50:20;;;;;;;1.15;0.30;;;;;;;13.98;51.89;101525.44;5018675;28;20376;-66
2021/09/17 06:52:49;;;;;;;1.15;0.10;;;;;;;14.12;52.02;101536.19;5006016;28;20045;-67
2021/09/17 06:55:16;;;;;;;2.85;0.10;;;;;;;14.44;52.22;101537.41;5017500;28;20460;-67
2021/09/17 06:58:02;;;;;;;2.28;0.20;;;;;;;16.63;47.83;101543.13;5000127;28;20037;-66
2021/09/17 07:00:31;;;;;;;4.32;0.10;;;;;;;17.99;43.77;101542.34;4989162;28;20029;-67
2021/09/17 07:02:57;;;;;;;1.13;0.45;;;;;;;18.11;43.59;101537.25;5002726;28;20038;-67
2021/09/17 07:05:24;;;;;;;3.40;0.20;;;;;;;18.14;42.67;101537.91;4999334;28;20597;-67
2021/09/17 07:07:50;;;;;;;2.83;0.20;;;;;;;17.85;42.63;101535.25;5003088;28;20034;-67
2021/09/17 07:10:17;;;;;;;0.63;0.10;;;;;;;17.95;43.78;101542.63;4998227;28;20498;-67
2021/09/17 07:12:44;;;;;;;0.75;0.10;;;;;;;18.69;42.22;101536.25;4999932;28;20488;-67
2021/09/17 07:15:10;;;;;;;0.43;0.10;;;;;;;19.09;40.75;101539.00;4998946;28;20108;-67
2021/09/17 07:17:36;;;;;;;0.90;0.10;;;;;;;18.92;40.74;101539.25;5019072;28;20436;-67
2021/09/17 07:20:03;;;;;;;1.70;0.10;;;;;;;18.36;41.70;101539.25;5012388;28;20071;-67
2021/09/17 07:22:28;;;;;;;1.08;0.10;;;;;;;17.59;43.33;101544.75;4986758;28;20737;-67
2021/09/17 07:24:54;;;;;;;1.88;0.10;;;;;;;17.21;43.35;101539.03;5013892;28;20087;-67
2021/09/17 07:27:19;;;;;;;1.55;0.15;;;;;;;17.10;44.76;101544.91;5006372;28;20550;-67
2021/09/17 07:29:45;;;;;;;2.60;0.20;;;;;;;16.93;44.96;101543.22;4998483;28;20069;-67
2021/09/17 07:32:11;;;;;;;1.13;0.30;;;;;;;16.77;45.85;101545.88;4995111;28;20048;-67
2021/09/17 07:34:36;;;;;;;0.38;0.00;;;;;;;16.63;45.54;101543.13;5002833;28;20041;-67
2021/09/17 07:37:02;;;;;;;0.90;0.10;;;;;;;16.52;46.76;101550.78;4996763;28;20065;-67
2021/09/17 07:39:28;;;;;;;3.03;0.10;;;;;;;16.31;46.64;101552.78;4994551;28;20548;-67
2021/09/17 07:41:53;;;;;;;1.85;0.10;;;;;;;16.15;47.41;101548.34;5014792;28;20042;-67
2021/09/17 07:44:19;;;;;;;6.18;0.10;;;;;;;16.15;47.82;101544.84;4996089;28;20056;-67
2021/09/17 07:46:44;;;;;;;3.72;0.00;;;;;;;16.24;47.44;101546.97;5000741;28;20031;-67
2021/09/17 07:49:10;;;;;;;0.68;0.00;;;;;;;16.16;47.79;101554.47;5002343;28;20064;-67
2021/09/17 07:51:35;;;;;;;1.02;0.00;;;;;;;16.26;47.17;101555.66;5000437;28;20062;-67
2021/09/17 07:54:01;;;;;;;4.05;0.10;;;;;;;16.36;47.75;101550.78;4998349;28;20046;-66
2021/09/17 07:56:26;;;;;;;2.17;0.10;;;;;;;16.38;47.89;101549.75;4998112;28;20026;-67
2021/09/17 07:58:52;;;;;;;0.20;0.00;;;;;;;16.62;46.87;101552.84;5014764;28;20599;-67
2021/09/17 08:01:17;;;;;;;1.38;0.03;;;;;;;16.75;46.83;101555.66;5011692;28;20496;-67
2021/09/17 08:03:42;;;;;;;3.10;0.10;;;;;;;16.89;46.26;101554.91;5010440;28;20449;-67
2021/09/17 08:06:10;;;;;;;2.20;0.25;;;;;;;16.89;46.28;101562.84;5001831;28;20045;-67
2021/09/17 08:08:35;;;;;;;7.13;0.20;;;;;;;16.63;46.19;101564.25;4999178;28;20033;-67
2021/09/17 08:11:01;;;;;;;3.75;0.10;;;;;;;16.56;46.31;101566.38;4996272;28;20076;-66
2021/09/17 08:13:26;;;;;;;3.25;0.10;;;;;;;16.29;46.38;101552.03;4997021;28;20060;-67
2021/09/17 08:15:52;;;;;;;1.55;0.30;;;;;;;16.45;45.96;101559.97;5011075;28;20347;-67
2021/09/17 08:18:17;;;;;;;1.42;0.03;;;;;;;16.34;45.63;101556.13;4993872;28;20038;-67
2021/09/17 08:20:50;;;;;;;1.15;0.08;;;;;;;16.46;45.53;101566.94;4997712;28;20413;-67
2021/09/17 08:23:19;;;;;;;4.68;0.17;;;;;;;16.49;46.12;101567.66;4999553;28;20029;-67
2021/09/17 08:25:44;;;;;;;0.65;0.10;;;;;;;16.56;45.99;101568.16;4998752;28;20127;-67
2021/09/17 08:28:10;;;;;;;2.92;0.00;;;;;;;16.68;46.01;101578.03;4994398;28;20530;-67
2021/09/17 08:30:36;;;;;;;1.35;0.28;;;;;;;16.85;45.38;101578.94;5000831;28;20494;-67
2021/09/17 08:33:02;;;;;;;4.85;0.10;;;;;;;16.72;45.38;101578.72;4999861;28;20474;-67
2021/09/17 08:35:27;;;;;;;4.07;0.08;;;;;;;16.61;45.20;101581.94;5000180;28;20461;-67
2021/09/17 08:37:53;;;;;;;2.38;0.20;;;;;;;16.65;45.54;101586.13;4997063;28;20041;-67
2021/09/17 08:40:18;;;;;;;0.28;0.10;;;;;;;16.90;45.35;101584.81;4998993;28;20029;-67
2021/09/17 08:42:44;;;;;;;0.80;0.00;;;;;;;16.44;45.58;101584.63;4997715;28;20107;-67
2021/09/17 08:45:11;;;;;;;3.20;0.20;;;;;;;16.49;44.99;101579.97;4997210;28;20030;-67
2021/09/17 08:47:38;;;;;;;2.65;0.10;;;;;;;16.29;45.41;101587.19;4995259;28;20030;-67
2021/09/17 08:50:05;;;;;;;2.10;0.45;;;;;;;16.12;45.53;101589.84;5009281;28;20038;-67
2021/09/17 08:52:33;;;;;;;1.38;0.10;;;;;;;15.85;46.13;101595.56;4998900;28;20037;-67
2021/09/17 08:55:02;;;;;;;1.40;0.00;;;;;;;16.08;45.25;101590.94;5000905;28;20057;-67
2021/09/17 08:57:28;;;;;;;0.93;0.10;;;;;;;16.20;45.04;101590.31;5014101;28;20077;-67
2021/09/17 08:59:54;;;;;;;2.47;0.25;;;;;;;16.36;44.50;101588.56;5009328;28;20411;-67
2021/09/17 09:02:28;;;;;;;1.02;0.00;;;;;;;16.47;44.08;101590.63;4994771;28;20048;-67
2021/09/17 09:04:54;;;;;;;2.30;0.00;;;;;;;16.69;43.42;101586.78;4997076;28;20325;-67
2021/09/17 09:07:26;;;;;;;1.27;0.00;;;;;;;16.66;42.18;101595.75;5017548;28;20038;-67
2021/09/17 09:09:52;;;;;;;0.40;0.03;;;;;;;16.60;42.97;101585.53;4994069;28;20945;-67
2021/09/17 09:12:18;;;;;;;1.17;0.00;;;;;;;16.44;43.08;101598.69;4998811;28;20050;-67
2021/09/17 09:14:43;;;;;;;1.00;0.00;;;;;;;16.20;43.34;101593.78;4998010;28;20018;-66
2021/09/17 09:17:09;;;;;;;0.20;0.15;;;;;;;16.42;43.31;101596.16;5001189;28;20030;-67
2021/09/17 09:19:35;;;;;;;0.38;0.00;;;;;;;16.45;43.94;101595.13;4995090;28;20372;-66
2021/09/17 09:22:04;;;;;;;6.75;0.65;;;;;;;16.58;43.59;101603.25;4995860;28;20061;-67
2021/09/17 09:24:31;;;;;;;4.88;0.00;;;;;;;16.63;42.78;101601.19;4998088;28;20429;-67
2021/09/17 09:27:13;;;;;;;0.15;0.00;;;;;;;16.55;42.76;101598.09;4996255;28;20045;-67
2021/09/17 09:29:40;;;;;;;1.58;0.30;;;;;;;16.36;42.81;101599.09;4994662;28;20029;-68
2021/09/17 09:32:06;;;;;;;0.32;0.08;;;;;;;16.47;42.71;101593.25;4997226;28;20062;-67
2021/09/17 09:34:48;;;;;;;2.25;0.15;;;;;;;16.71;43.07;101592.84;5014091;28;20125;-67
2021/09/17 09:37:16;;;;;;;0.30;0.10;;;;;;;17.02;42.54;101592.03;4999584;28;20387;-66
2021/09/17 09:40:09;;;;;;;3.30;0.00;;;;;;;17.13;43.08;101594.91;5008853;28;20492;-68
2021/09/17 09:42:38;;;;;;;0.43;0.03;;;;;;;17.17;41.37;101591.16;4995166;28;20057;-67
2021/09/17 09:45:06;;;;;;;1.17;0.00;;;;;;;17.19;40.59;101588.44;5014796;28;20034;-66
2021/09/17 09:47:33;;;;;;;1.95;0.45;;;;;;;16.86;41.13;101591.19;4982964;28;20026;-67
2021/09/17 09:50:13;;;;;;;0.20;0.00;;;;;;;17.29;40.28;101586.13;4995288;28;20418;-67
2021/09/17 09:52:39;;;;;;;1.60;0.00;;;;;;;17.34;39.47;101587.56;4994564;28;20103;-67
2021/09/17 09:55:06;;;;;;;1.10;0.10;;;;;;;17.28;40.69;101593.22;4994307;28;20038;-67
2021/09/17 09:57:32;;;;;;;1.92;0.08;;;;;;;17.82;39.39;101587.47;4999985;28;20582;-67
2021/09/17 10:00:08;;;;;;;3.03;0.03;;;;;;;17.54;40.03;101589.09;4992889;28;20030;-67
2021/09/17 10:02:40;;;;;;;;;;;;;;;18.05;39.97;101583.41;5014808;28;20030;-67
2021/09/17 10:05:08;;;;;;;1.50;0.00;;;;;;;18.41;38.68;101584.81;4992969;28;20370;-67
2021/09/17 10:07:34;;;;;;;0.52;0.00;;;;;;;18.65;38.38;101577.97;4993465;28;20038;-67
2021/09/17 10:10:00;;;;;;;0.40;0.10;;;;;;;18.92;36.97;101578.97;5000977;28;20535;-67
2021/09/17 10:12:29;;;;;;;4.18;0.10;;;;;;;18.95;35.83;101584.94;4994670;28;20030;-67
2021/09/17 10:14:57;;;;;;;1.05;0.00;;;;;;;18.82;36.13;101576.88;4991393;28;20124;-67
2021/09/17 10:17:27;;;;;;;0.35;0.00;;;;;;;19.17;35.13;101584.41;4999996;28;20030;-67
2021/09/17 10:19:54;;;;;;;0.73;0.00;;;;;;;19.28;35.02;101589.84;5022382;22;20062;-70
2021/09/17 10:22:37;;;;;;;0.57;0.00;;;;;;;18.74;35.58;101584.47;5006108;28;20119;-70
2021/09/17 10:25:19;;;;;;;0.88;0.10;;;;;;;18.95;35.37;101586.75;5002361;28;20038;-70
2021/09/17 10:28:07;;;;;;;0.40;0.00;;;;;;;18.76;35.45;101585.22;5003021;28;20520;-70
2021/09/17 10:30:35;;;;;;;1.33;0.00;;;;;;;18.51;36.66;101590.38;4995807;28;20026;-70
2021/09/17 10:33:01;;;;;;;1.48;0.00;;;;;;;18.93;36.32;101573.59;5003157;28;20037;-71
2021/09/17 10:35:31;;;;;;;0.57;0.00;;;;;;;19.02;36.01;101580.09;5004060;28;20050;-70
2021/09/17 10:38:17;;;;;;;1.15;0.00;;;;;;;18.74;36.32;101579.16;5001261;28;20042;-70
2021/09/17 10:40:50;;;;;;;0.95;0.22;;;;;;;19.17;35.90;101589.69;5003182;28;20033;-70
2021/09/17 10:43:18;;;;;;;1.85;0.10;;;;;;;19.76;34.54;101580.53;5006328;28;20081;-70
2021/09/17 10:45:55;;;;;;;4.55;0.00;;;;;;;19.39;35.31;101577.66;5006989;28;20434;-70
2021/09/17 10:48:29;;;;;;;1.17;0.00;;;;;;;18.10;37.09;101586.66;5006177;28;20050;-70
2021/09/17 10:51:03;;;;;;;0.40;0.03;;;;;;;18.35;36.33;101580.75;5006713;28;20116;-70
2021/09/17 10:53:41;;;;;;;7.95;0.30;;;;;;;18.82;36.37;101579.53;4997662;28;20309;-70
2021/09/17 10:56:15;;;;;;;0.00;0.00;;;;;;;19.23;34.85;101586.66;5005856;28;20113;-70
2021/09/17 10:58:45;;;;;;;0.10;0.00;;;;;;;19.88;34.91;101579.69;4996508;28;20113;-69
2021/09/17 11:01:16;;;;;;;1.20;0.00;;;;;;;20.19;34.57;101580.22;5006015;28;20041;-69
2021/09/17 11:03:44;;;;;;;0.40;0.00;;;;;;;20.22;34.02;101582.72;5005896;28;20242;-70
2021/09/17 11:06:29;;;;;;;1.77;0.10;;;;;;;19.84;33.84;101578.22;5004282;28;20045;-70
2021/09/17 11:08:56;;;;;;;0.63;0.00;;;;;;;19.69;34.49;101580.09;5005566;28;20884;-71
2021/09/17 11:11:22;;;;;;;1.25;0.05;;;;;;;19.33;35.05;101572.78;5002005;28;20038;-70
2021/09/17 11:13:48;;;;;;;1.58;0.03;;;;;;;19.81;34.37;101573.09;5004234;28;20515;-70
2021/09/17 11:16:18;;;;;;;1.10;0.10;;;;;;;20.46;34.78;101570.34;5003408;28;20219;-71
2021/09/17 11:19:11;;;;;;;0.43;0.00;;;;;;;21.21;32.34;101571.19;5003336;28;20516;-71
2021/09/17 11:21:40;;;;;;;0.90;0.10;;;;;;;21.41;32.16;101575.84;5001459;28;20049;-70
2021/09/17 11:24:14;;;;;;;1.88;0.00;;;;;;;20.61;32.06;101567.53;5002878;28;20044;-70